Time;durP1;ratioP1;P1;durP2;ratioP2;P2;SDS_P1;SDS_P2;PMS_P1;PMS_P2;Temp;Humidity;BMP_temperature;BMP_pressure;BME280_temperature;BME280_humidity;BME280_pressure;Samples;Min_cycle;Max_cycle;Signal;HPM_P1;HPM_P2
2024/03/11 00:01:24;;;;;;;4.27;3.97;;;6.50;99.90;;;;;;5023974;28;20202;-68
2024/03/11 00:03:53;;;;;;;4.93;4.43;;;6.50;99.90;;;;;;5023602;28;20435;-68
2024/03/11 00:06:19;;;;;;;4.70;4.30;;;6.50;99.90;;;;;;5025534;28;20205;-68
2024/03/11 00:08:47;;;;;;;4.40;4.00;;;6.40;99.90;;;;;;5029956;28;20467;-68
2024/03/11 00:11:12;;;;;;;4.77;4.30;;;6.40;99.90;;;;;;5026723;28;20185;-68
2024/03/11 00:13:38;;;;;;;4.40;4.00;;;6.40;99.90;;;;;;5028289;28;20460;-68
2024/03/11 00:16:06;;;;;;;5.30;4.80;;;6.40;99.90;;;;;;5019794;28;20182;-67
2024/03/11 00:18:32;;;;;;;4.03;3.73;;;6.40;99.90;;;;;;5031325;28;20238;-68
2024/03/11 00:20:58;;;;;;;4.60;4.20;;;6.40;99.90;;;;;;5033939;28;20617;-68
2024/03/11 00:23:24;;;;;;;4.83;4.43;;;6.40;99.90;;;;;;5055734;22;20567;-71
2024/03/11 00:25:49;;;;;;;5.23;4.73;;;6.40;99.90;;;;;;5031878;28;20205;-71
2024/03/11 00:28:17;;;;;;;4.50;4.10;;;6.40;99.90;;;;;;5032286;28;20178;-71
2024/03/11 00:30:44;;;;;;;5.73;5.23;;;6.40;99.90;;;;;;5031430;28;20261;-71
2024/03/11 00:33:10;;;;;;;5.17;4.73;;;6.40;99.90;;;;;;5033223;28;20965;-71
2024/03/11 00:35:35;;;;;;;6.80;5.07;;;6.40;99.90;;;;;;5032015;28;20435;-71
2024/03/11 00:38:07;;;;;;;5.40;4.90;;;6.40;99.90;;;;;;5031542;28;20183;-71
2024/03/11 00:40:34;;;;;;;5.47;4.93;;;6.40;99.90;;;;;;5032853;28;20182;-71
2024/03/11 00:42:59;;;;;;;4.57;4.10;;;6.40;99.90;;;;;;5032100;28;20495;-70
2024/03/11 00:45:25;;;;;;;5.27;4.40;;;6.40;99.90;;;;;;5032326;28;22136;-71
2024/03/11 00:47:52;;;;;;;3.97;3.60;;;6.40;99.90;;;;;;5030212;28;20446;-70
2024/03/11 00:50:19;;;;;;;4.87;4.57;;;6.40;99.90;;;;;;5032476;28;20257;-70
2024/03/11 00:52:44;;;;;;;4.53;4.10;;;6.40;99.90;;;;;;5037229;28;20455;-70
2024/03/11 00:55:11;;;;;;;4.90;4.50;;;6.40;99.90;;;;;;5033322;28;20443;-70
2024/03/11 00:57:38;;;;;;;5.07;4.57;;;6.50;99.90;;;;;;5031017;28;20238;-70
2024/03/11 01:00:05;;;;;;;4.33;3.93;;;6.50;99.90;;;;;;5038034;28;20440;-71
2024/03/11 01:02:33;;;;;;;4.33;3.93;;;6.50;99.90;;;;;;5032391;28;20551;-70
2024/03/11 01:04:58;;;;;;;5.03;4.53;;;6.50;99.90;;;;;;5029956;28;20435;-70
2024/03/11 01:07:27;;;;;;;3.90;3.60;;;6.50;99.90;;;;;;5032534;28;20524;-70
2024/03/11 01:09:53;;;;;;;4.53;4.10;;;6.50;99.90;;;;;;5032617;28;20175;-70
2024/03/11 01:12:22;;;;;;;3.83;3.53;;;6.40;99.90;;;;;;5035811;28;20987;-71
2024/03/11 01:14:48;;;;;;;3.50;3.20;;;6.40;99.90;;;;;;5043697;28;20262;-70
2024/03/11 01:17:13;;;;;;;4.27;3.90;;;6.40;99.90;;;;;;5033712;28;20465;-71
2024/03/11 01:19:39;;;;;;;4.00;3.60;;;6.40;99.90;;;;;;5029252;28;20190;-70
2024/03/11 01:22:05;;;;;;;4.33;4.03;;;6.40;99.90;;;;;;5033010;28;20237;-70
2024/03/11 01:24:30;;;;;;;3.87;3.47;;;6.40;99.90;;;;;;5031128;28;20185;-71
2024/03/11 01:26:57;;;;;;;3.93;3.53;;;6.40;99.90;;;;;;5030641;28;20843;-70
2024/03/11 01:29:24;;;;;;;4.20;3.90;;;6.30;99.90;;;;;;5033221;28;20170;-71
2024/03/11 01:31:50;;;;;;;3.80;3.50;;;6.30;99.90;;;;;;5013306;28;20437;-71
2024/03/11 01:34:15;;;;;;;3.77;3.47;;;6.30;99.90;;;;;;5037874;28;20448;-70
2024/03/11 01:36:42;;;;;;;3.40;3.10;;;6.20;99.90;;;;;;5028381;28;20189;-70
2024/03/11 01:39:12;;;;;;;3.50;3.20;;;6.20;99.90;;;;;;5030875;28;20731;-71
2024/03/11 01:41:38;;;;;;;4.07;3.77;;;6.20;99.90;;;;;;5005829;28;20458;-70
2024/03/11 01:44:05;;;;;;;3.70;3.43;;;6.20;99.90;;;;;;5028556;28;20464;-71
2024/03/11 01:46:33;;;;;;;3.60;3.30;;;6.10;99.90;;;;;;5032018;28;20425;-70
2024/03/11 01:49:04;;;;;;;3.30;3.00;;;6.10;99.90;;;;;;5030411;28;20441;-70
2024/03/11 01:51:31;;;;;;;2.97;2.67;;;6.10;99.90;;;;;;5029933;28;20579;-70
2024/03/11 01:53:57;;;;;;;3.67;3.37;;;6.10;99.90;;;;;;5033066;28;20467;-71
2024/03/11 01:56:23;;;;;;;2.80;2.60;;;6.00;99.90;;;;;;5039534;28;20425;-70
2024/03/11 01:58:49;;;;;;;3.37;3.07;;;6.00;99.90;;;;;;5031785;28;20189;-71
2024/03/11 02:01:17;;;;;;;3.43;3.13;;;6.00;99.90;;;;;;5029002;28;22308;-70
2024/03/11 02:03:43;;;;;;;2.93;2.70;;;5.90;99.90;;;;;;5021110;28;20547;-70
2024/03/11 02:06:10;;;;;;;3.37;3.07;;;5.90;99.90;;;;;;5030424;28;20477;-71
2024/03/11 02:08:37;;;;;;;2.90;2.70;;;5.90;99.90;;;;;;5028513;28;20204;-70
2024/03/11 02:11:03;;;;;;;3.90;3.20;;;5.90;99.90;;;;;;5023902;28;20433;-70
2024/03/11 02:13:30;;;;;;;3.60;3.03;;;5.90;99.90;;;;;;5023812;28;20461;-70
2024/03/11 02:15:57;;;;;;;2.63;2.43;;;5.90;99.90;;;;;;5023113;28;20800;-71
2024/03/11 02:18:23;;;;;;;3.90;3.17;;;5.80;99.90;;;;;;5027567;28;20444;-70
2024/03/11 02:20:48;;;;;;;2.77;2.57;;;5.80;99.90;;;;;;5036499;28;20515;-71
2024/03/11 02:23:14;;;;;;;2.83;2.53;;;5.80;99.90;;;;;;5029919;28;20639;-71
2024/03/11 02:25:39;;;;;;;2.23;2.13;;;5.80;99.90;;;;;;5032198;28;20191;-70
2024/03/11 02:28:05;;;;;;;3.07;2.77;;;5.80;99.90;;;;;;5028231;28;20186;-71
2024/03/11 02:30:32;;;;;;;2.83;2.63;;;5.80;99.90;;;;;;5033416;28;20173;-71
2024/03/11 02:32:58;;;;;;;2.67;2.47;;;5.80;99.90;;;;;;5035849;28;20248;-71
2024/03/11 02:35:24;;;;;;;2.57;2.37;;;5.80;99.90;;;;;;5029708;28;20436;-70
2024/03/11 02:37:49;;;;;;;2.87;2.67;;;5.80;99.90;;;;;;5028653;28;20452;-70
2024/03/11 02:40:19;;;;;;;2.70;2.50;;;5.80;99.90;;;;;;5031422;28;20302;-71
2024/03/11 02:42:44;;;;;;;2.90;2.60;;;5.70;99.90;;;;;;5026831;28;20210;-71
2024/03/11 02:45:14;;;;;;;2.30;2.13;;;5.70;99.90;;;;;;5029077;28;20976;-70
2024/03/11 02:47:41;;;;;;;2.97;2.27;;;5.70;99.90;;;;;;5028949;28;20178;-71
2024/03/11 02:50:10;;;;;;;4.63;2.80;;;5.70;99.90;;;;;;5030409;28;20437;-70
2024/03/11 02:52:36;;;;;;;2.50;2.30;;;5.70;99.90;;;;;;5032598;28;20452;-70
2024/03/11 02:55:03;;;;;;;2.50;2.30;;;5.70;99.90;;;;;;5018878;28;20444;-70
2024/03/11 02:57:29;;;;;;;2.67;2.47;;;5.60;99.90;;;;;;5031075;28;20463;-70
2024/03/11 02:59:55;;;;;;;2.27;2.07;;;5.60;99.90;;;;;;5032375;28;20845;-70
2024/03/11 03:02:22;;;;;;;2.47;2.27;;;5.60;99.90;;;;;;5027238;28;20472;-70
2024/03/11 03:04:48;;;;;;;2.23;2.03;;;5.60;99.90;;;;;;5022747;28;20167;-70
2024/03/11 03:07:15;;;;;;;2.57;2.37;;;5.50;99.90;;;;;;5022230;28;20436;-70
2024/03/11 03:09:41;;;;;;;2.60;2.40;;;5.50;99.90;;;;;;5028276;28;20498;-70
2024/03/11 03:12:09;;;;;;;3.13;1.77;;;5.50;99.90;;;;;;5027775;28;20441;-70
2024/03/11 03:14:36;;;;;;;2.83;2.47;;;5.50;99.90;;;;;;5025885;28;20651;-70
2024/03/11 03:17:01;;;;;;;2.63;1.80;;;5.40;99.90;;;;;;5030416;28;20983;-70
2024/03/11 03:19:27;;;;;;;2.40;2.20;;;5.40;99.90;;;;;;5029674;28;20448;-71
2024/03/11 03:21:52;;;;;;;2.27;2.07;;;5.30;99.90;;;;;;5029819;28;20233;-70
2024/03/11 03:24:18;;;;;;;2.10;1.90;;;5.30;99.90;;;;;;5033960;28;20823;-70
2024/03/11 03:26:43;;;;;;;2.00;1.80;;;5.30;99.90;;;;;;5029720;28;20190;-71
2024/03/11 03:29:09;;;;;;;4.33;2.17;;;5.20;99.90;;;;;;5030430;28;20178;-71
2024/03/11 03:31:34;;;;;;;2.10;2.00;;;5.20;99.90;;;;;;5033379;28;20196;-71
2024/03/11 03:34:00;;;;;;;2.23;2.03;;;5.20;99.90;;;;;;5035970;28;20213;-71
2024/03/11 03:36:25;;;;;;;2.60;2.40;;;5.10;99.90;;;;;;5027623;28;20201;-70
2024/03/11 03:38:51;;;;;;;3.23;2.53;;;5.10;99.90;;;;;;5027065;28;20189;-71
2024/03/11 03:41:17;;;;;;;2.50;2.30;;;5.10;99.90;;;;;;5026474;28;20205;-71
2024/03/11 03:43:43;;;;;;;2.50;2.30;;;5.10;99.90;;;;;;5034460;28;20452;-70
2024/03/11 03:46:08;;;;;;;2.00;1.90;;;5.00;99.90;;;;;;5029397;28;20564;-71
2024/03/11 03:48:34;;;;;;;2.37;2.20;;;5.00;99.90;;;;;;5027095;28;20244;-71
2024/03/11 03:51:03;;;;;;;2.03;1.80;;;5.00;99.90;;;;;;5028056;28;20188;-70
2024/03/11 03:53:29;;;;;;;2.17;2.00;;;5.00;99.90;;;;;;5033751;28;20464;-70
2024/03/11 03:55:54;;;;;;;2.37;2.17;;;4.90;99.90;;;;;;5033562;28;20432;-71
2024/03/11 03:58:20;;;;;;;2.37;2.17;;;5.00;99.90;;;;;;5024562;28;21087;-70
2024/03/11 04:00:45;;;;;;;2.97;2.77;;;4.90;99.90;;;;;;5023364;28;20189;-71
2024/03/11 04:03:11;;;;;;;2.90;2.40;;;4.90;99.90;;;;;;5034662;28;20208;-71
2024/03/11 04:05:37;;;;;;;2.10;1.90;;;4.90;99.90;;;;;;5033361;28;20575;-70
2024/03/11 04:08:02;;;;;;;1.83;1.73;;;4.90;99.90;;;;;;5032635;28;20201;-70
2024/03/11 04:10:28;;;;;;;8.73;6.37;;;4.80;99.90;;;;;;5032719;28;20604;-70
2024/03/11 04:12:56;;;;;;;3.23;2.77;;;4.80;99.90;;;;;;5031412;28;20264;-70
2024/03/11 04:15:23;;;;;;;2.20;2.00;;;4.70;99.90;;;;;;5012482;28;20178;-70
2024/03/11 04:17:50;;;;;;;2.73;2.53;;;4.70;99.90;;;;;;5031047;28;20954;-70
2024/03/11 04:20:16;;;;;;;2.57;2.40;;;4.70;99.90;;;;;;5032648;28;20445;-70
2024/03/11 04:22:46;;;;;;;2.40;2.20;;;4.70;99.90;;;;;;5032131;28;20479;-70
2024/03/11 04:25:41;;;;;;;2.50;2.30;;;4.70;99.90;;;;;;5032972;28;20531;-70
2024/03/11 04:28:08;;;;;;;2.87;2.67;;;4.70;99.90;;;;;;5009000;28;20447;-70
2024/03/11 04:30:37;;;;;;;3.43;3.13;;;4.60;99.90;;;;;;5034681;28;20514;-70
2024/03/11 04:33:03;;;;;;;3.00;2.20;;;4.60;99.90;;;;;;5034935;28;20814;-70
2024/03/11 04:35:31;;;;;;;2.33;2.20;;;4.60;99.90;;;;;;5046952;28;20432;-70
2024/03/11 04:38:10;;;;;;;3.37;3.00;;;4.60;99.90;;;;;;5024561;28;20194;-70
2024/03/11 04:40:38;;;;;;;3.23;2.93;;;4.60;99.90;;;;;;5022763;28;20428;-70
2024/03/11 04:43:04;;;;;;;2.43;2.30;;;4.60;99.90;;;;;;5031637;28;20506;-70
2024/03/11 04:45:30;;;;;;;2.40;2.20;;;4.50;99.90;;;;;;5027082;28;20451;-70
2024/03/11 04:47:57;;;;;;;3.33;2.53;;;4.40;99.90;;;;;;5033094;28;20456;-70
2024/03/11 04:50:27;;;;;;;2.80;2.60;;;4.40;99.90;;;;;;5031671;28;20486;-70
2024/03/11 04:52:58;;;;;;;3.40;3.10;;;4.40;99.90;;;;;;5030120;28;20452;-70
2024/03/11 04:55:26;;;;;;;3.07;2.77;;;4.40;99.90;;;;;;5042224;28;20476;-70
2024/03/11 04:57:52;;;;;;;2.67;2.47;;;4.40;99.90;;;;;;5031873;28;20962;-70
2024/03/11 05:00:18;;;;;;;3.97;2.80;;;4.30;99.90;;;;;;5033361;28;20436;-70
2024/03/11 05:02:43;;;;;;;2.87;2.67;;;4.30;99.90;;;;;;5034778;28;20657;-70
2024/03/11 05:05:10;;;;;;;2.90;2.47;;;4.30;99.90;;;;;;5038027;28;20182;-70
2024/03/11 05:07:39;;;;;;;3.20;2.90;;;4.30;99.90;;;;;;5035266;28;20175;-70
2024/03/11 05:10:05;;;;;;;3.80;3.50;;;4.30;99.90;;;;;;5033224;28;20484;-70
2024/03/11 05:12:31;;;;;;;4.00;3.60;;;4.30;99.90;;;;;;5018079;28;20475;-70
2024/03/11 05:14:58;;;;;;;3.57;3.27;;;4.30;99.90;;;;;;5027705;28;20954;-70
2024/03/11 05:17:24;;;;;;;3.47;3.17;;;4.30;99.90;;;;;;5031827;28;20436;-70
2024/03/11 05:19:51;;;;;;;3.33;3.03;;;4.30;99.90;;;;;;5030771;28;20834;-70
2024/03/11 05:22:17;;;;;;;3.00;2.70;;;4.30;99.90;;;;;;5031783;28;20480;-70
2024/03/11 05:24:43;;;;;;;3.90;3.60;;;4.30;99.90;;;;;;5033078;28;20515;-70
2024/03/11 05:27:09;;;;;;;2.97;2.67;;;4.30;99.90;;;;;;5036976;28;20436;-70
2024/03/11 05:29:35;;;;;;;2.93;2.73;;;4.30;99.90;;;;;;5044831;28;20450;-70
2024/03/11 05:32:02;;;;;;;2.90;2.70;;;4.30;99.90;;;;;;5045527;28;20209;-70
2024/03/11 05:34:28;;;;;;;2.53;2.33;;;4.30;99.90;;;;;;5043925;28;20177;-70
2024/03/11 05:36:53;;;;;;;2.53;2.33;;;4.30;99.90;;;;;;5039258;28;20428;-70
2024/03/11 05:39:19;;;;;;;2.60;2.40;;;4.30;99.90;;;;;;5028570;28;20611;-70
2024/03/11 05:41:45;;;;;;;1.70;1.60;;;4.30;99.90;;;;;;5032509;28;20178;-70
2024/03/11 05:44:11;;;;;;;1.80;1.70;;;4.40;99.90;;;;;;5031035;28;20824;-70
2024/03/11 05:46:36;;;;;;;3.13;2.43;;;4.40;99.90;;;;;;5032277;28;20682;-70
2024/03/11 05:49:05;;;;;;;3.10;2.80;;;4.40;99.90;;;;;;5032116;28;20244;-70
2024/03/11 05:51:31;;;;;;;2.80;2.47;;;4.40;99.90;;;;;;5032096;28;20251;-70
2024/03/11 05:54:00;;;;;;;3.70;3.17;;;4.40;99.90;;;;;;5029782;28;20459;-70
2024/03/11 05:56:28;;;;;;;3.10;2.90;;;4.40;99.90;;;;;;5014309;28;21004;-70
2024/03/11 05:58:54;;;;;;;5.23;2.87;;;4.40;99.90;;;;;;5031032;28;20457;-70
2024/03/11 06:01:20;;;;;;;7.80;2.77;;;4.40;99.90;;;;;;5022962;28;20468;-70
2024/03/11 06:03:49;;;;;;;2.63;2.10;;;4.40;99.90;;;;;;5023355;28;20217;-70
2024/03/11 06:06:15;;;;;;;3.10;2.70;;;4.40;99.90;;;;;;5024293;28;20477;-70
2024/03/11 06:08:43;;;;;;;2.40;2.30;;;4.40;99.90;;;;;;5024909;28;20900;-70
2024/03/11 06:11:09;;;;;;;2.63;2.43;;;4.40;99.90;;;;;;5022558;28;20463;-70
2024/03/11 06:13:37;;;;;;;3.13;2.80;;;4.40;99.90;;;;;;5020919;28;20457;-70
2024/03/11 06:16:07;;;;;;;2.90;2.70;;;4.40;99.90;;;;;;5023720;28;20237;-70
2024/03/11 06:18:35;;;;;;;3.93;3.17;;;4.60;99.90;;;;;;5023579;28;20436;-70
2024/03/11 06:21:01;;;;;;;3.60;3.30;;;4.70;99.90;;;;;;5022790;28;20779;-70
2024/03/11 06:23:27;;;;;;;4.03;3.70;;;4.90;99.90;;;;;;5053891;23;20491;-70
2024/03/11 06:25:54;;;;;;;3.83;3.30;;;5.10;99.90;;;;;;5043405;28;21766;-68
2024/03/11 06:28:21;;;;;;;3.60;3.30;;;5.20;99.90;;;;;;5040884;28;20174;-70
2024/03/11 06:30:47;;;;;;;5.10;3.17;;;5.40;99.90;;;;;;5044659;28;20432;-70
2024/03/11 06:33:13;;;;;;;3.10;2.90;;;5.50;99.90;;;;;;5042934;28;21265;-68
2024/03/11 06:35:39;;;;;;;3.47;3.17;;;5.70;99.90;;;;;;5043835;28;20650;-70
2024/03/11 06:38:05;;;;;;;3.53;3.23;;;5.80;99.90;;;;;;5044085;28;20446;-69
2024/03/11 06:40:31;;;;;;;3.20;2.93;;;6.10;99.90;;;;;;5026341;28;20428;-69
2024/03/11 06:42:57;;;;;;;4.47;2.60;;;6.40;99.90;;;;;;5042259;28;20205;-70
2024/03/11 06:45:23;;;;;;;3.13;2.93;;;6.70;99.90;;;;;;5026788;28;20439;-68
2024/03/11 06:47:49;;;;;;;2.40;2.20;;;6.90;99.90;;;;;;5042920;28;20188;-69
2024/03/11 06:50:15;;;;;;;2.93;2.33;;;7.20;99.90;;;;;;5041136;28;20443;-70
2024/03/11 06:52:41;;;;;;;3.00;2.47;;;7.50;99.90;;;;;;5042084;28;20469;-69
2024/03/11 06:55:10;;;;;;;2.20;2.00;;;7.70;99.90;;;;;;5043540;28;20438;-69
2024/03/11 06:57:37;;;;;;;2.67;2.47;;;7.60;99.90;;;;;;5040988;28;20494;-69
2024/03/11 07:00:03;;;;;;;1.90;1.80;;;7.70;99.90;;;;;;5040369;28;20447;-68
2024/03/11 07:02:32;;;;;;;2.80;2.57;;;7.80;99.90;;;;;;5044037;28;20445;-68
2024/03/11 07:04:57;;;;;;;1.87;1.77;;;7.90;99.90;;;;;;5042847;28;20534;-68
2024/03/11 07:07:25;;;;;;;2.53;2.33;;;8.00;99.90;;;;;;5041281;28;20561;-69
2024/03/11 07:09:51;;;;;;;3.03;2.30;;;8.00;99.90;;;;;;5041395;28;20177;-69
2024/03/11 07:12:20;;;;;;;3.50;2.50;;;8.00;99.90;;;;;;5040054;28;20452;-70
2024/03/11 07:14:46;;;;;;;2.30;2.10;;;8.30;99.90;;;;;;5041653;28;20181;-69
2024/03/11 07:17:12;;;;;;;2.33;2.13;;;8.40;99.90;;;;;;5041430;28;20432;-69
2024/03/11 07:19:39;;;;;;;2.07;1.87;;;8.60;99.90;;;;;;5044617;28;20443;-68
2024/03/11 07:22:06;;;;;;;2.40;1.60;;;8.60;99.90;;;;;;5046020;28;20435;-68
2024/03/11 07:24:32;;;;;;;1.70;1.60;;;8.70;99.90;;;;;;5051712;28;20562;-68
2024/03/11 07:26:57;;;;;;;2.33;2.13;;;8.60;99.90;;;;;;5041746;28;20656;-67
2024/03/11 07:29:23;;;;;;;2.40;2.20;;;8.70;99.90;;;;;;5048480;28;20194;-69
2024/03/11 07:31:48;;;;;;;1.77;1.67;;;8.60;99.90;;;;;;5049081;28;20666;-69
2024/03/11 07:34:14;;;;;;;1.67;1.57;;;8.40;99.90;;;;;;5047988;28;20210;-69
2024/03/11 07:36:39;;;;;;;1.97;1.60;;;8.40;99.90;;;;;;5031873;28;20646;-69
2024/03/11 07:39:05;;;;;;;1.50;1.40;;;8.20;99.90;;;;;;5051020;28;20652;-69
2024/03/11 07:41:31;;;;;;;1.83;1.73;;;8.20;99.90;;;;;;5061675;28;20189;-69
2024/03/11 07:43:56;;;;;;;2.13;1.93;;;8.40;99.90;;;;;;5054810;28;20196;-68
2024/03/11 07:46:22;;;;;;;3.10;1.70;;;8.90;99.90;;;;;;5050605;28;20432;-68
2024/03/11 07:48:48;;;;;;;1.50;1.40;;;9.50;99.90;;;;;;5051572;28;20647;-69
2024/03/11 07:51:14;;;;;;;1.83;1.50;;;9.70;99.90;;;;;;5051340;28;20180;-70
2024/03/11 07:53:39;;;;;;;1.37;1.27;;;9.80;99.90;;;;;;5051136;28;20828;-69
2024/03/11 07:56:05;;;;;;;1.60;1.50;;;9.80;99.90;;;;;;5051277;28;20177;-70
2024/03/11 07:58:34;;;;;;;3.00;1.33;;;9.80;99.90;;;;;;5041496;28;20186;-68
2024/03/11 08:01:00;;;;;;;1.93;1.10;;;9.90;99.90;;;;;;5033458;28;20836;-68
2024/03/11 08:03:27;;;;;;;1.30;1.20;;;10.00;99.90;;;;;;5051572;28;20443;-69
2024/03/11 08:05:52;;;;;;;3.80;1.50;;;10.20;99.90;;;;;;5051318;28;20452;-67
2024/03/11 08:08:18;;;;;;;1.10;1.00;;;10.40;99.90;;;;;;5050604;28;20482;-69
2024/03/11 08:10:44;;;;;;;1.70;1.27;;;10.80;99.90;;;;;;5050819;28;20185;-69
2024/03/11 08:13:10;;;;;;;1.23;1.17;;;11.00;99.90;;;;;;5051468;28;20212;-70
2024/03/11 08:15:36;;;;;;;1.90;1.43;;;11.00;99.90;;;;;;5051315;28;20408;-69
2024/03/11 08:18:01;;;;;;;1.60;1.50;;;11.30;99.90;;;;;;5050050;28;20173;-69
2024/03/11 08:20:27;;;;;;;1.43;1.33;;;11.80;99.90;;;;;;5051258;28;20459;-69
2024/03/11 08:22:55;;;;;;;1.87;1.03;;;12.00;99.90;;;;;;5050172;28;20300;-70
2024/03/11 08:25:23;;;;;;;1.47;1.33;;;12.20;99.90;;;;;;5051066;28;20173;-69
2024/03/11 08:27:52;;;;;;;3.77;1.60;;;11.70;99.90;;;;;;5035810;28;20436;-69
2024/03/11 08:30:18;;;;;;;1.30;1.20;;;11.60;99.90;;;;;;5013756;28;20425;-69
2024/03/11 08:32:46;;;;;;;1.83;1.03;;;11.80;99.90;;;;;;5043229;28;20483;-69
2024/03/11 08:35:14;;;;;;;4.40;1.77;;;12.10;99.90;;;;;;5051250;28;20426;-69
2024/03/11 08:37:41;;;;;;;2.80;1.40;;;12.40;99.90;;;;;;5051013;28;20428;-69
2024/03/11 08:40:08;;;;;;;2.67;1.43;;;12.70;99.90;;;;;;5054235;28;20428;-69
2024/03/11 08:42:37;;;;;;;1.30;1.10;;;12.60;99.90;;;;;;5049984;28;20459;-69
2024/03/11 08:45:04;;;;;;;2.40;1.30;;;12.50;99.90;;;;;;5042083;28;20432;-69
2024/03/11 08:47:29;;;;;;;1.23;1.13;;;12.70;99.90;;;;;;5053657;28;20454;-70
2024/03/11 08:49:55;;;;;;;1.30;1.10;;;12.60;99.90;;;;;;5054668;28;20479;-69
2024/03/11 08:52:20;;;;;;;1.73;1.00;;;12.90;99.90;;;;;;5038128;28;20198;-69
2024/03/11 08:54:46;;;;;;;3.70;1.30;;;13.20;99.90;;;;;;5044413;28;20264;-68
2024/03/11 08:57:18;;;;;;;2.00;1.47;;;14.10;99.90;;;;;;5053654;28;20169;-69
2024/03/11 08:59:45;;;;;;;0.90;0.90;;;15.10;99.90;;;;;;5054525;28;20688;-69
2024/03/11 09:02:13;;;;;;;1.60;1.40;;;15.60;99.90;;;;;;5052126;28;20493;-68
2024/03/11 09:04:38;;;;;;;3.00;2.07;;;15.30;99.90;;;;;;5050492;28;20428;-68
2024/03/11 09:07:04;;;;;;;1.60;1.10;;;15.20;99.90;;;;;;5044613;28;20433;-69
2024/03/11 09:09:30;;;;;;;1.00;1.00;;;15.50;99.90;;;;;;5054011;28;20556;-69
2024/03/11 09:12:00;;;;;;;2.20;1.50;;;16.10;99.90;;;;;;5054088;28;20300;-69
2024/03/11 09:14:32;;;;;;;1.50;1.40;;;16.30;99.90;;;;;;5036009;28;20452;-69
2024/03/11 09:17:03;;;;;;;1.43;1.33;;;15.80;99.90;;;;;;5052357;28;20432;-69
2024/03/11 09:19:30;;;;;;;4.20;1.50;;;16.00;99.90;;;;;;5050115;28;20848;-69
2024/03/11 09:21:56;;;;;;;2.27;1.00;;;16.80;99.90;;;;;;5035996;28;20459;-68
2024/03/11 09:24:22;;;;;;;1.50;1.40;;;17.50;96.60;;;;;;5053733;28;20480;-65
2024/03/11 09:26:51;;;;;;;2.20;1.30;;;17.20;95.50;;;;;;5035256;28;20435;-65
2024/03/11 09:29:17;;;;;;;2.87;1.57;;;17.20;96.20;;;;;;5049541;28;20662;-68
2024/03/11 09:31:43;;;;;;;2.20;1.67;;;17.20;94.90;;;;;;5051977;28;20478;-68
2024/03/11 09:34:08;;;;;;;1.50;1.40;;;17.30;93.10;;;;;;5052935;28;20949;-69
2024/03/11 09:36:38;;;;;;;1.20;1.10;;;17.10;93.20;;;;;;5053179;28;20244;-68
2024/03/11 09:39:05;;;;;;;1.90;1.80;;;17.40;94.00;;;;;;5053653;28;20643;-69
2024/03/11 09:41:39;;;;;;;2.13;1.30;;;18.10;88.30;;;;;;5053291;28;20523;-72
2024/03/11 09:44:04;;;;;;;1.87;1.77;;;18.30;86.60;;;;;;5051735;28;20474;-69
2024/03/11 09:46:31;;;;;;;2.10;1.57;;;18.90;83.50;;;;;;5052504;28;20416;-68
2024/03/11 09:48:57;;;;;;;0.90;0.90;;;19.10;76.20;;;;;;5051904;28;20185;-69
2024/03/11 09:51:23;;;;;;;1.17;1.17;;;19.50;73.00;;;;;;5052747;28;20995;-68
2024/03/11 09:53:53;;;;;;;1.00;1.00;;;19.30;71.40;;;;;;5046639;28;20455;-69
2024/03/11 09:56:22;;;;;;;1.47;1.03;;;19.50;71.30;;;;;;5053031;28;20418;-69
2024/03/11 09:58:58;;;;;;;1.37;0.97;;;20.00;68.40;;;;;;5052330;28;20424;-69
2024/03/11 10:01:30;;;;;;;1.27;1.10;;;20.60;64.00;;;;;;5052878;28;20558;-69
2024/03/11 10:03:58;;;;;;;1.20;1.10;;;20.70;62.80;;;;;;5039287;28;20480;-68
2024/03/11 10:06:24;;;;;;;1.17;1.07;;;22.10;58.30;;;;;;5032651;28;20427;-68
2024/03/11 10:08:50;;;;;;;1.43;0.90;;;22.70;54.20;;;;;;5032152;28;20413;-69
2024/03/11 10:11:20;;;;;;;1.20;1.20;;;23.10;51.50;;;;;;5034422;28;20508;-69
2024/03/11 10:13:47;;;;;;;2.30;0.90;;;23.80;49.10;;;;;;5033398;28;20285;-68
2024/03/11 10:16:17;;;;;;;9.20;8.40;;;24.30;45.10;;;;;;5032927;28;20444;-69
2024/03/11 10:19:02;;;;;;;1.60;1.50;;;24.30;44.80;;;;;;5042272;28;20936;-69
2024/03/11 10:21:33;;;;;;;4.80;4.27;;;23.80;44.40;;;;;;5051419;28;20482;-67
2024/03/11 10:24:00;;;;;;;2.73;2.47;;;23.30;46.30;;;;;;5052536;28;20460;-67
2024/03/11 10:26:33;;;;;;;2.03;1.83;;;22.20;44.50;;;;;;5052077;28;20408;-65
2024/03/11 10:29:00;;;;;;;2.00;1.80;;;20.40;48.70;;;;;;5041350;28;20425;-66
2024/03/11 10:31:28;;;;;;;2.00;1.80;;;18.90;52.60;;;;;;5038778;28;20440;-69
2024/03/11 10:34:12;;;;;;;1.53;1.43;;;18.00;56.40;;;;;;5050861;28;20447;-69
2024/03/11 10:36:40;;;;;;;1.50;1.40;;;17.70;59.20;;;;;;5031814;28;20424;-69
2024/03/11 10:41:49;;;;;;;2.10;1.90;;;20.20;54.60;;;;;;5034076;28;21011;-69
2024/03/11 10:44:16;;;;;;;1.80;1.27;;;20.30;52.00;;;;;;5052003;28;20855;-68
2024/03/11 10:46:42;;;;;;;1.93;1.73;;;19.50;54.50;;;;;;5051412;28;20434;-69
2024/03/11 10:49:12;;;;;;;1.30;1.10;;;18.10;57.30;;;;;;5047030;28;20419;-72
2024/03/11 10:51:48;;;;;;;1.93;1.30;;;17.20;62.70;;;;;;5034157;28;20178;-68
2024/03/11 10:54:23;;;;;;;1.57;1.20;;;17.70;61.80;;;;;;5047817;28;20443;-68
2024/03/11 10:56:55;;;;;;;1.27;1.17;;;18.10;58.10;;;;;;5050828;28;20519;-69
2024/03/11 10:59:22;;;;;;;2.80;2.60;;;17.60;59.20;;;;;;5052290;28;20438;-68
2024/03/11 11:01:55;;;;;;;1.50;1.40;;;16.90;61.00;;;;;;5034665;28;20953;-70
2024/03/11 11:04:28;;;;;;;2.10;1.77;;;16.10;69.30;;;;;;5045997;28;20475;-70
2024/03/11 11:06:56;;;;;;;1.40;1.30;;;16.40;68.60;;;;;;5055382;28;20455;-69
2024/03/11 11:09:22;;;;;;;4.43;2.03;;;16.80;65.90;;;;;;5055311;28;20420;-68
2024/03/11 11:11:51;;;;;;;1.53;1.37;;;16.60;65.70;;;;;;5052386;28;20853;-68
2024/03/11 11:14:20;;;;;;;2.00;1.40;;;17.20;61.00;;;;;;5045134;28;20200;-68
2024/03/11 11:16:49;;;;;;;1.23;1.23;;;19.10;56.20;;;;;;5046599;28;20940;-68
2024/03/11 11:19:22;;;;;;;1.30;1.20;;;20.00;52.40;;;;;;5051182;28;20435;-73
2024/03/11 11:21:48;;;;;;;1.30;1.20;;;21.20;49.40;;;;;;5051176;28;20451;-73
2024/03/11 11:24:29;;;;;;;2.07;1.23;;;22.20;46.70;;;;;;5033842;28;20483;-71
2024/03/11 11:26:57;;;;;;;3.60;1.30;;;22.30;43.80;;;;;;5050623;28;20439;-69
2024/03/11 11:29:27;;;;;;;1.47;1.17;;;22.80;43.20;;;;;;5042215;28;20891;-69
2024/03/11 11:32:11;;;;;;;1.70;1.60;;;22.20;42.90;;;;;;5050217;28;20439;-69
2024/03/11 11:34:46;;;;;;;1.40;1.30;;;20.40;44.00;;;;;;5051043;28;20428;-69
2024/03/11 11:37:23;;;;;;;2.30;1.63;;;17.90;50.70;;;;;;5050691;28;20407;-69
2024/03/11 11:39:56;;;;;;;1.67;1.57;;;16.50;59.90;;;;;;5051280;28;20446;-68
2024/03/11 11:42:39;;;;;;;1.93;1.30;;;15.80;66.20;;;;;;5049149;28;20459;-69
2024/03/11 11:45:11;;;;;;;1.43;1.33;;;15.20;68.00;;;;;;5051177;28;20424;-68
2024/03/11 11:47:38;;;;;;;1.40;1.30;;;15.20;68.30;;;;;;5050300;28;20477;-68
2024/03/11 11:50:26;;;;;;;2.30;1.50;;;15.00;70.30;;;;;;5051258;28;20423;-69
2024/03/11 11:53:01;;;;;;;1.20;0.97;;;14.80;72.80;;;;;;5051005;28;20448;-69
2024/03/11 11:55:27;;;;;;;1.20;1.13;;;14.90;77.00;;;;;;5050943;28;20424;-69
2024/03/11 11:58:07;;;;;;;2.00;1.40;;;14.90;78.10;;;;;;5032901;28;20431;-68
2024/03/11 12:00:35;;;;;;;5.60;1.47;;;14.80;80.50;;;;;;5050043;28;20531;-68
2024/03/11 12:03:04;;;;;;;1.33;1.23;;;14.70;83.00;;;;;;5049829;28;20494;-68
2024/03/11 12:05:31;;;;;;;1.50;1.40;;;14.70;87.70;;;;;;5048032;28;20458;-69
2024/03/11 12:07:56;;;;;;;2.00;0.90;;;16.80;71.20;;;;;;5050036;28;20459;-69
2024/03/11 12:10:23;;;;;;;1.50;1.40;;;18.50;59.40;;;;;;5051131;28;20475;-69
2024/03/11 12:12:49;;;;;;;2.03;1.33;;;18.30;58.20;;;;;;5051763;28;20193;-68
2024/03/11 12:15:19;;;;;;;2.80;1.60;;;17.30;58.80;;;;;;5036450;28;20515;-69
2024/03/11 12:17:57;;;;;;;1.60;1.50;;;16.70;65.10;;;;;;5034507;28;20269;-69
2024/03/11 12:20:30;;;;;;;1.10;1.00;;;17.90;59.90;;;;;;5053595;28;20434;-69
2024/03/11 12:22:57;;;;;;;1.43;1.10;;;18.10;57.00;;;;;;5062358;22;20452;-65
2024/03/11 12:25:23;;;;;;;4.10;1.40;;;17.80;57.20;;;;;;4997116;28;20558;-64
2024/03/11 12:27:53;;;;;;;1.33;1.23;;;17.40;58.10;;;;;;4994701;28;20517;-65
2024/03/11 12:30:19;;;;;;;1.70;1.60;;;17.30;58.60;;;;;;4996065;28;20168;-65
2024/03/11 12:32:58;;;;;;;2.60;2.47;;;16.70;58.10;;;;;;4994270;28;20781;-65
2024/03/11 12:35:27;;;;;;;1.90;1.77;;;18.40;58.20;;;;;;4995127;28;20584;-65
2024/03/11 12:37:54;;;;;;;1.57;1.47;;;22.00;47.90;;;;;;4994693;28;20449;-65
2024/03/11 12:40:20;;;;;;;1.43;1.10;;;23.80;42.10;;;;;;4995434;28;20423;-65
2024/03/11 12:42:54;;;;;;;1.40;0.90;;;25.50;38.00;;;;;;4994985;28;20470;-65
2024/03/11 12:45:43;;;;;;;1.90;0.90;;;26.00;33.90;;;;;;5010987;28;20189;-65
2024/03/11 12:48:12;;;;;;;1.23;1.07;;;25.60;32.10;;;;;;5012655;28;20479;-65
2024/03/11 12:50:42;;;;;;;1.17;1.07;;;24.30;33.70;;;;;;4997861;28;20423;-65
2024/03/11 12:53:17;;;;;;;0.90;0.90;;;22.90;34.80;;;;;;4995146;28;20438;-64
2024/03/11 12:55:43;;;;;;;1.53;1.20;;;20.80;37.20;;;;;;4995303;28;20969;-64
2024/03/11 12:58:16;;;;;;;1.20;1.10;;;19.30;40.30;;;;;;4994380;28;20458;-64